Time;durP1;ratioP1;P1;durP2;ratioP2;P2;SDS_P1;SDS_P2;PMS_P1;PMS_P2;Temp;Humidity;BMP_temperature;BMP_pressure;BME280_temperature;BME280_humidity;BME280_pressure;Samples;Min_cycle;Max_cycle;Signal;HPM_P1;HPM_P2
2024/03/18 16:21:17;;;;;;;9.95;2.22;;;13.50;99.90;;;;;;4877073;29;20385;-75
2024/03/18 16:23:43;;;;;;;12.07;1.70;;;13.40;99.90;;;;;;4883350;29;20847;-76
2024/03/18 16:26:08;;;;;;;7.82;1.80;;;13.40;99.90;;;;;;4870771;29;20044;-76
2024/03/18 16:28:34;;;;;;;9.55;5.38;;;13.40;99.90;;;;;;4930609;23;20045;-71
2024/03/18 16:31:00;;;;;;;14.75;4.97;;;13.30;99.90;;;;;;4868613;29;20044;-71
2024/03/18 16:33:25;;;;;;;18.52;4.63;;;13.30;99.90;;;;;;4871053;29;20521;-70
2024/03/18 16:35:51;;;;;;;11.27;3.20;;;13.30;99.90;;;;;;4866448;29;20050;-70
2024/03/18 16:38:17;;;;;;;10.55;2.65;;;13.30;99.90;;;;;;4870090;29;20553;-70
2024/03/18 16:40:43;;;;;;;16.27;5.18;;;13.30;99.90;;;;;;4860383;29;20059;-74
2024/03/18 16:43:09;;;;;;;12.43;3.20;;;13.30;99.90;;;;;;4861091;29;20565;-71
2024/03/18 16:45:39;;;;;;;12.77;3.38;;;13.30;99.90;;;;;;4865639;29;20132;-72
2024/03/18 16:48:06;;;;;;;14.65;3.10;;;13.30;99.90;;;;;;4871406;29;20049;-71
2024/03/18 16:50:32;;;;;;;11.55;2.83;;;13.20;99.90;;;;;;4867535;29;20053;-72
2024/03/18 16:52:58;;;;;;;13.85;3.30;;;13.20;99.90;;;;;;4871487;29;20067;-72
2024/03/18 16:55:27;;;;;;;10.45;2.72;;;13.10;99.90;;;;;;4854248;29;20485;-71
2024/03/18 16:57:56;;;;;;;11.90;2.60;;;13.10;99.90;;;;;;4866663;29;20036;-79
2024/03/18 17:00:34;;;;;;;19.95;2.85;;;13.00;99.90;;;;;;4860779;29;20044;-72
2024/03/18 17:03:02;;;;;;;11.13;2.83;;;12.90;99.90;;;;;;4867999;29;20100;-73
2024/03/18 17:05:30;;;;;;;14.93;3.13;;;12.80;99.90;;;;;;4870703;29;20104;-71
2024/03/18 17:07:58;;;;;;;12.55;2.60;;;12.80;99.90;;;;;;4864978;29;20199;-72
2024/03/18 17:10:24;;;;;;;9.40;2.47;;;12.70;99.90;;;;;;4852911;29;20120;-73
2024/03/18 17:12:49;;;;;;;10.20;2.20;;;12.60;99.90;;;;;;4869805;29;20120;-72
2024/03/18 17:15:16;;;;;;;13.48;2.63;;;12.50;99.90;;;;;;4869392;29;20666;-73
2024/03/18 17:17:42;;;;;;;13.10;2.53;;;12.40;99.90;;;;;;4868436;29;20096;-71
2024/03/18 17:20:09;;;;;;;10.20;2.67;;;12.40;99.90;;;;;;4871228;29;20057;-73
2024/03/18 17:22:36;;;;;;;11.25;2.47;;;12.30;99.90;;;;;;4873031;29;20049;-71
2024/03/18 17:25:07;;;;;;;13.43;2.92;;;12.20;99.90;;;;;;4869392;29;20048;-71
2024/03/18 17:27:33;;;;;;;10.95;2.60;;;12.10;99.90;;;;;;4855414;29;20049;-71
2024/03/18 17:30:00;;;;;;;9.55;2.15;;;12.00;99.90;;;;;;4870645;29;20041;-71
2024/03/18 17:32:26;;;;;;;10.48;2.47;;;11.90;99.90;;;;;;4855433;29;20037;-71
2024/03/18 17:34:52;;;;;;;15.82;2.28;;;11.80;99.90;;;;;;4869091;29;20045;-71
2024/03/18 17:37:18;;;;;;;7.80;1.80;;;11.70;99.90;;;;;;4864124;29;20068;-73
2024/03/18 17:39:50;;;;;;;12.02;3.05;;;11.60;99.90;;;;;;4865267;29;20044;-73
2024/03/18 17:42:15;;;;;;;13.40;2.65;;;11.50;99.90;;;;;;4870088;29;20811;-73
2024/03/18 17:44:41;;;;;;;13.15;2.50;;;11.50;99.90;;;;;;4867475;29;20056;-73
2024/03/18 17:47:07;;;;;;;10.85;2.60;;;11.40;99.90;;;;;;4868709;29;20049;-74
2024/03/18 17:49:32;;;;;;;6.80;2.10;;;11.30;99.90;;;;;;4866443;29;20530;-73
2024/03/18 17:51:58;;;;;;;9.65;2.35;;;11.20;99.90;;;;;;4868149;29;20454;-73
2024/03/18 17:54:24;;;;;;;10.32;2.17;;;11.20;99.90;;;;;;4873810;29;20051;-72
2024/03/18 17:56:49;;;;;;;12.23;3.38;;;11.10;99.90;;;;;;4872484;29;20076;-72
2024/03/18 17:59:18;;;;;;;11.10;2.40;;;11.00;99.90;;;;;;4869433;29;20044;-72
2024/03/18 18:01:44;;;;;;;11.93;3.00;;;11.00;99.90;;;;;;4851492;29;20075;-73
2024/03/18 18:04:11;;;;;;;17.23;7.97;;;10.90;99.90;;;;;;4866497;29;20073;-72
2024/03/18 18:06:37;;;;;;;20.05;9.02;;;10.90;99.90;;;;;;4867800;29;20048;-72
2024/03/18 18:09:05;;;;;;;20.27;9.40;;;11.00;99.90;;;;;;4869014;29;20730;-72
2024/03/18 18:11:35;;;;;;;16.30;6.97;;;10.80;99.90;;;;;;4869322;29;20181;-73
2024/03/18 18:14:01;;;;;;;14.20;3.83;;;10.80;99.90;;;;;;4866441;29;20049;-72
2024/03/18 18:16:27;;;;;;;13.48;4.55;;;10.80;99.90;;;;;;4872638;29;20423;-73
2024/03/18 18:18:52;;;;;;;10.88;4.10;;;11.00;99.90;;;;;;4871964;29;20108;-73
2024/03/18 18:21:18;;;;;;;17.40;2.83;;;10.80;99.90;;;;;;4876295;29;20056;-73
2024/03/18 18:23:44;;;;;;;10.75;2.50;;;10.70;99.90;;;;;;4869650;29;20044;-73
2024/03/18 18:26:10;;;;;;;11.57;2.45;;;10.70;99.90;;;;;;4866277;29;20080;-74
2024/03/18 18:28:36;;;;;;;14.55;3.63;;;10.70;99.90;;;;;;4866446;29;20033;-74
2024/03/18 18:31:02;;;;;;;11.27;3.40;;;10.60;99.90;;;;;;4866098;29;20502;-74
2024/03/18 18:33:28;;;;;;;14.75;3.65;;;10.60;99.90;;;;;;4872883;29;20049;-74
2024/03/18 18:35:54;;;;;;;17.67;4.07;;;10.60;99.90;;;;;;4869789;29;20087;-73
2024/03/18 18:38:20;;;;;;;15.35;4.70;;;10.50;99.90;;;;;;4875973;29;20049;-75
2024/03/18 18:40:46;;;;;;;16.65;5.75;;;10.50;99.90;;;;;;4874815;29;20052;-74
2024/03/18 18:43:12;;;;;;;19.75;5.25;;;10.50;99.90;;;;;;4875007;29;20049;-75
2024/03/18 18:45:38;;;;;;;14.05;3.80;;;10.40;99.90;;;;;;4872948;29;20055;-72
2024/03/18 18:48:04;;;;;;;10.85;3.05;;;10.40;99.90;;;;;;4875183;29;20032;-73
2024/03/18 18:50:30;;;;;;;13.65;2.83;;;10.40;99.90;;;;;;4875789;29;20043;-71
2024/03/18 18:52:55;;;;;;;15.80;2.50;;;10.30;99.90;;;;;;4873877;29;20037;-71
2024/03/18 18:55:22;;;;;;;14.25;2.30;;;10.30;99.90;;;;;;4875810;29;20100;-72
2024/03/18 18:57:48;;;;;;;13.50;2.35;;;10.30;99.90;;;;;;4876635;29;20108;-71
2024/03/18 19:00:17;;;;;;;15.95;2.47;;;10.30;99.90;;;;;;4875519;29;20447;-72
2024/03/18 19:02:43;;;;;;;13.60;2.50;;;10.30;99.90;;;;;;4876442;29;20076;-71
2024/03/18 19:05:10;;;;;;;13.13;2.33;;;10.30;99.90;;;;;;4874790;29;20402;-71
2024/03/18 19:07:36;;;;;;;12.35;2.30;;;10.30;99.90;;;;;;4859945;29;21008;-71
2024/03/18 19:10:06;;;;;;;10.15;2.38;;;10.20;99.90;;;;;;4873568;29;20045;-72
2024/03/18 19:12:32;;;;;;;10.40;2.05;;;10.20;99.90;;;;;;4876237;29;20041;-71
2024/03/18 19:14:58;;;;;;;8.75;2.00;;;10.20;99.90;;;;;;4874387;29;20502;-71
2024/03/18 19:17:24;;;;;;;7.97;2.88;;;10.10;99.90;;;;;;4868165;29;20049;-71
2024/03/18 19:19:57;;;;;;;10.43;2.92;;;10.00;99.90;;;;;;4874543;29;20045;-72
2024/03/18 19:22:23;;;;;;;10.00;3.00;;;10.00;99.90;;;;;;4875683;29;20096;-71
2024/03/18 19:24:49;;;;;;;12.48;3.40;;;9.90;99.90;;;;;;4874920;29;20052;-72
2024/03/18 19:27:16;;;;;;;11.23;3.10;;;9.90;99.90;;;;;;4875688;29;20044;-72
2024/03/18 19:29:41;;;;;;;12.40;2.97;;;9.80;99.90;;;;;;4875777;29;20112;-72
2024/03/18 19:32:07;;;;;;;7.45;3.13;;;9.80;99.90;;;;;;4875318;29;20108;-72
2024/03/18 19:34:33;;;;;;;9.90;3.38;;;9.80;99.90;;;;;;4875667;29;20443;-71
2024/03/18 19:36:59;;;;;;;10.20;3.13;;;9.80;99.90;;;;;;4874766;29;20487;-72
2024/03/18 19:39:26;;;;;;;9.68;3.83;;;9.80;99.90;;;;;;4873772;29;20048;-71
2024/03/18 19:41:52;;;;;;;12.18;4.28;;;9.80;99.90;;;;;;4874031;29;20060;-72
2024/03/18 19:44:17;;;;;;;15.43;4.32;;;9.80;99.90;;;;;;4874836;29;20092;-71
2024/03/18 19:46:44;;;;;;;8.70;3.60;;;9.70;99.90;;;;;;4873912;29;20056;-71
2024/03/18 19:49:10;;;;;;;11.93;3.83;;;9.70;99.90;;;;;;4873871;29;20487;-72
2024/03/18 19:51:35;;;;;;;11.15;3.17;;;9.70;99.90;;;;;;4874068;29;20065;-72
2024/03/18 19:54:01;;;;;;;12.82;3.30;;;9.70;99.90;;;;;;4874827;29;20029;-71
2024/03/18 19:56:28;;;;;;;8.05;2.83;;;9.60;99.90;;;;;;4874768;29;20043;-72
2024/03/18 19:58:53;;;;;;;8.98;2.53;;;9.60;99.90;;;;;;4875180;29;20517;-71
2024/03/18 20:01:19;;;;;;;13.38;2.42;;;9.50;99.90;;;;;;4874401;29;20045;-71
2024/03/18 20:03:45;;;;;;;8.35;2.50;;;9.50;99.90;;;;;;4858058;29;20087;-71
2024/03/18 20:06:11;;;;;;;12.52;2.60;;;9.50;99.90;;;;;;4875269;29;20092;-72
2024/03/18 20:08:38;;;;;;;7.95;2.15;;;9.40;99.90;;;;;;4874799;29;20279;-71
2024/03/18 20:11:04;;;;;;;11.90;2.30;;;9.40;99.90;;;;;;4867172;29;20047;-71
2024/03/18 20:13:30;;;;;;;10.95;2.38;;;9.40;99.90;;;;;;4857644;29;20112;-72
2024/03/18 20:15:55;;;;;;;9.25;2.17;;;9.30;99.90;;;;;;4874001;29;20045;-72
2024/03/18 20:18:21;;;;;;;10.13;2.80;;;9.20;99.90;;;;;;4874778;29;20068;-72
2024/03/18 20:20:47;;;;;;;12.73;2.35;;;9.20;99.90;;;;;;4873071;29;20052;-72
2024/03/18 20:23:12;;;;;;;6.93;1.88;;;9.10;99.90;;;;;;4874468;29;20124;-71
2024/03/18 20:25:39;;;;;;;10.63;2.58;;;9.10;99.90;;;;;;4872817;29;20045;-72
2024/03/18 20:28:05;;;;;;;8.23;2.35;;;9.10;99.90;;;;;;4874719;29;20395;-71
2024/03/18 20:30:31;;;;;;;15.25;3.22;;;9.10;99.90;;;;;;4873425;29;20047;-72
2024/03/18 20:32:57;;;;;;;11.18;2.47;;;9.00;99.90;;;;;;4872922;29;20128;-72
2024/03/18 20:35:23;;;;;;;13.88;2.60;;;9.00;99.90;;;;;;4874745;29;20111;-72
2024/03/18 20:37:48;;;;;;;10.57;2.95;;;9.00;99.90;;;;;;4874205;29;20045;-71
2024/03/18 20:40:16;;;;;;;8.95;2.53;;;8.90;99.90;;;;;;4872979;29;20051;-71
2024/03/18 20:42:43;;;;;;;8.43;2.75;;;8.90;99.90;;;;;;4873382;29;20100;-71
2024/03/18 20:45:10;;;;;;;10.85;2.30;;;8.90;99.90;;;;;;4873251;29;20383;-72
2024/03/18 20:47:36;;;;;;;15.73;3.08;;;8.90;99.90;;;;;;4865471;29;20052;-71
2024/03/18 20:50:04;;;;;;;5.18;1.95;;;8.90;99.90;;;;;;4872574;29;20053;-72
2024/03/18 20:52:30;;;;;;;8.93;2.42;;;8.90;99.90;;;;;;4874234;29;20462;-71
2024/03/18 20:54:57;;;;;;;7.18;2.05;;;8.90;99.90;;;;;;4872295;29;20403;-72
2024/03/18 20:57:23;;;;;;;10.13;3.25;;;8.90;99.90;;;;;;4874029;29;20037;-72
2024/03/18 20:59:49;;;;;;;8.77;2.80;;;8.90;99.90;;;;;;4872502;29;20068;-72
2024/03/18 21:02:15;;;;;;;10.45;3.05;;;8.90;99.90;;;;;;4866599;29;20491;-71
2024/03/18 21:04:41;;;;;;;12.60;3.03;;;8.90;99.90;;;;;;4872215;29;20040;-72
2024/03/18 21:07:07;;;;;;;13.90;3.50;;;8.90;99.90;;;;;;4872009;29;20041;-71
2024/03/18 21:09:32;;;;;;;11.15;2.85;;;8.90;99.90;;;;;;4872408;29;20045;-71
2024/03/18 21:11:59;;;;;;;16.40;3.50;;;8.90;99.90;;;;;;4873072;29;20069;-71
2024/03/18 21:14:24;;;;;;;9.07;2.95;;;8.90;99.90;;;;;;4872851;29;20045;-72
2024/03/18 21:16:50;;;;;;;10.55;3.25;;;8.90;99.90;;;;;;4873295;29;20060;-71
2024/03/18 21:19:16;;;;;;;8.15;3.50;;;8.90;99.90;;;;;;4856665;29;20037;-72
2024/03/18 21:21:42;;;;;;;9.93;3.90;;;8.90;99.90;;;;;;4873132;29;20165;-71
2024/03/18 21:24:10;;;;;;;10.75;3.47;;;8.90;99.90;;;;;;4872190;29;20045;-71
2024/03/18 21:26:37;;;;;;;8.70;3.78;;;8.90;99.90;;;;;;4868264;29;20044;-71
2024/03/18 21:29:06;;;;;;;10.00;3.88;;;8.40;99.90;;;;;;4875665;29;20053;-71
2024/03/18 21:31:32;;;;;;;11.35;4.63;;;8.80;99.90;;;;;;4875541;29;20384;-71
2024/03/18 21:33:58;;;;;;;14.27;3.90;;;8.80;99.90;;;;;;4872687;29;20045;-71
2024/03/18 21:36:24;;;;;;;10.93;3.35;;;8.70;99.90;;;;;;4873378;29;20037;-71
2024/03/18 21:38:50;;;;;;;8.10;3.25;;;8.70;99.90;;;;;;4875308;29;20173;-71
2024/03/18 21:41:16;;;;;;;7.93;3.40;;;8.70;99.90;;;;;;4864748;29;20052;-72
2024/03/18 21:43:41;;;;;;;11.82;4.00;;;8.60;99.90;;;;;;4869019;29;20570;-72
2024/03/18 21:46:09;;;;;;;15.02;4.43;;;8.60;99.90;;;;;;4868337;29;20185;-72
2024/03/18 21:48:36;;;;;;;11.68;4.18;;;8.50;99.90;;;;;;4867848;29;20060;-72
2024/03/18 21:51:05;;;;;;;15.38;4.10;;;8.50;99.90;;;;;;4870228;29;20044;-73
2024/03/18 21:53:31;;;;;;;8.77;4.32;;;8.50;99.90;;;;;;4867060;29;20108;-73
2024/03/18 21:55:57;;;;;;;12.68;4.95;;;8.40;99.90;;;;;;4867905;29;20045;-73
2024/03/18 21:58:26;;;;;;;15.80;5.20;;;8.40;99.90;;;;;;4874008;29;20135;-73
2024/03/18 22:00:52;;;;;;;15.70;5.25;;;8.40;99.90;;;;;;4869325;29;20048;-72
2024/03/18 22:03:18;;;;;;;16.30;5.43;;;8.40;99.90;;;;;;4869551;29;20224;-72
2024/03/18 22:05:44;;;;;;;11.70;4.97;;;8.30;99.90;;;;;;4868380;29;20064;-73
2024/03/18 22:08:10;;;;;;;12.07;5.30;;;8.30;99.90;;;;;;4867070;29;20048;-73
2024/03/18 22:10:44;;;;;;;11.27;5.15;;;8.30;99.90;;;;;;4871759;29;20472;-73
2024/03/18 22:13:10;;;;;;;13.93;4.53;;;8.20;99.90;;;;;;4857435;29;20874;-74
2024/03/18 22:15:36;;;;;;;13.55;5.30;;;8.30;99.90;;;;;;4867105;29;20041;-74
2024/03/18 22:18:02;;;;;;;12.65;6.10;;;8.20;99.90;;;;;;4871340;29;20124;-73
2024/03/18 22:20:27;;;;;;;12.15;5.95;;;8.10;99.90;;;;;;4865841;29;20533;-73
2024/03/18 22:22:53;;;;;;;12.20;5.47;;;8.10;99.90;;;;;;4868018;29;20402;-74
2024/03/18 22:25:19;;;;;;;13.50;5.78;;;8.10;99.90;;;;;;4870719;29;20466;-74
2024/03/18 22:27:45;;;;;;;13.88;5.82;;;8.10;99.90;;;;;;4868567;29;20072;-72
2024/03/18 22:30:14;;;;;;;16.90;6.22;;;8.00;99.90;;;;;;4891280;23;20493;-73
2024/03/18 22:32:40;;;;;;;14.20;6.90;;;8.00;99.90;;;;;;4875403;29;20049;-73
2024/03/18 22:35:10;;;;;;;18.02;7.30;;;8.00;99.90;;;;;;4877084;29;20072;-72
2024/03/18 22:37:36;;;;;;;14.52;6.63;;;8.00;99.90;;;;;;4872185;29;20494;-72
2024/03/18 22:40:05;;;;;;;14.35;7.15;;;8.00;99.90;;;;;;4874902;29;20036;-72
2024/03/18 22:42:32;;;;;;;18.98;6.78;;;8.00;99.90;;;;;;4889620;29;20414;-74
2024/03/18 22:44:58;;;;;;;13.63;6.75;;;7.90;99.90;;;;;;4876698;29;20554;-72
2024/03/18 22:47:25;;;;;;;16.45;6.65;;;7.90;99.90;;;;;;4878593;29;20072;-72
2024/03/18 22:49:51;;;;;;;11.95;6.32;;;8.00;99.90;;;;;;4877986;29;20065;-72
2024/03/18 22:52:17;;;;;;;12.73;6.43;;;7.90;99.90;;;;;;4877790;29;20052;-72
2024/03/18 22:54:43;;;;;;;13.88;6.25;;;7.90;99.90;;;;;;4878047;29;20398;-72
2024/03/18 22:57:08;;;;;;;10.93;5.97;;;7.90;99.90;;;;;;4875845;29;20095;-72
2024/03/18 22:59:34;;;;;;;15.68;6.38;;;7.90;99.90;;;;;;4870864;29;20476;-72
2024/03/18 23:02:00;;;;;;;13.05;6.07;;;7.90;99.90;;;;;;4877975;29;20467;-72
2024/03/18 23:04:25;;;;;;;15.45;6.32;;;7.90;99.90;;;;;;4877383;29;20531;-72
2024/03/18 23:06:51;;;;;;;17.33;5.80;;;7.80;99.90;;;;;;4874921;29;20045;-72
2024/03/18 23:09:16;;;;;;;13.45;5.32;;;7.90;99.90;;;;;;4875046;29;20421;-72
2024/03/18 23:11:43;;;;;;;12.10;5.40;;;7.90;99.90;;;;;;4878309;29;20089;-72
2024/03/18 23:14:09;;;;;;;16.85;7.25;;;7.90;99.90;;;;;;4885003;29;20072;-71
2024/03/18 23:16:35;;;;;;;16.17;7.25;;;7.90;99.90;;;;;;4881154;29;20411;-72
2024/03/18 23:19:01;;;;;;;17.27;7.40;;;7.90;99.90;;;;;;4876524;29;20037;-72
2024/03/18 23:21:27;;;;;;;18.55;8.95;;;7.90;99.90;;;;;;4877825;29;20487;-71
2024/03/18 23:23:53;;;;;;;14.30;7.45;;;8.00;99.90;;;;;;4876229;29;20045;-72
2024/03/18 23:26:19;;;;;;;17.80;7.57;;;8.00;99.90;;;;;;4877710;29;20417;-71
2024/03/18 23:28:45;;;;;;;10.95;5.93;;;8.00;99.90;;;;;;4874785;29;20128;-73
2024/03/18 23:31:10;;;;;;;12.95;5.47;;;8.00;99.90;;;;;;4884376;29;20127;-72
2024/03/18 23:33:37;;;;;;;15.43;5.50;;;8.00;99.90;;;;;;4879893;29;20045;-72
2024/03/18 23:36:03;;;;;;;8.88;5.22;;;8.00;99.90;;;;;;4874336;29;20092;-73
2024/03/18 23:38:30;;;;;;;10.65;5.65;;;8.00;99.90;;;;;;4860954;29;20084;-72
2024/03/18 23:40:56;;;;;;;12.55;5.68;;;8.00;99.90;;;;;;4876888;29;20044;-72
2024/03/18 23:43:22;;;;;;;18.80;5.88;;;8.00;99.90;;;;;;4876109;29;20052;-72
2024/03/18 23:45:56;;;;;;;12.48;5.75;;;7.90;99.90;;;;;;4874256;29;20048;-72
2024/03/18 23:48:22;;;;;;;14.13;5.35;;;7.90;99.90;;;;;;4884967;29;20108;-72
2024/03/18 23:50:48;;;;;;;13.10;5.40;;;7.90;99.90;;;;;;4873684;29;20049;-72
2024/03/18 23:53:15;;;;;;;13.43;5.60;;;7.90;99.90;;;;;;4876498;29;20052;-72
2024/03/18 23:55:41;;;;;;;15.88;5.82;;;7.80;99.90;;;;;;4877083;29;20045;-72
2024/03/18 23:58:09;;;;;;;12.23;5.28;;;7.80;99.90;;;;;;4876080;29;20079;-72
